Time;durP1;ratioP1;P1;durP2;ratioP2;P2;SDS_P1;SDS_P2;PMS_P1;PMS_P2;Temp;Humidity;BMP_temperature;BMP_pressure;BME280_temperature;BME280_humidity;BME280_pressure;Samples;Min_cycle;Max_cycle;Signal;HPM_P1;HPM_P2
2021/08/04 00:01:39;;;;;;;8.73;6.80;;;;;;;24.74;39.99;101105.94;5015909;28;20026;-71
2021/08/04 00:04:04;;;;;;;8.52;5.72;;;;;;;24.59;40.06;101103.16;5015648;28;20669;-71
2021/08/04 00:06:30;;;;;;;8.40;6.35;;;;;;;24.57;40.06;101102.78;5015869;28;20021;-71
2021/08/04 00:08:57;;;;;;;6.78;5.43;;;;;;;24.51;40.27;101101.56;5014336;28;20115;-71
2021/08/04 00:11:23;;;;;;;7.22;6.25;;;;;;;24.51;40.31;101104.38;5015708;28;20028;-71
2021/08/04 00:13:49;;;;;;;7.88;6.05;;;;;;;24.48;40.35;101098.78;5015788;28;20376;-73
2021/08/04 00:16:15;;;;;;;7.30;5.88;;;;;;;24.44;40.83;101103.56;5015675;28;20041;-71
2021/08/04 00:18:40;;;;;;;10.38;5.88;;;;;;;24.42;40.38;101106.78;5015647;28;20024;-71
2021/08/04 00:21:06;;;;;;;8.52;6.00;;;;;;;24.40;40.53;101111.94;5015559;28;20034;-76
2021/08/04 00:23:32;;;;;;;6.28;4.85;;;;;;;24.42;40.33;101112.34;5015302;28;20030;-77
2021/08/04 00:25:57;;;;;;;7.00;5.35;;;;;;;24.40;40.74;101113.94;5014319;28;20483;-71
2021/08/04 00:28:23;;;;;;;10.18;5.82;;;;;;;24.30;40.79;101112.72;5015354;28;20492;-71
2021/08/04 00:30:49;;;;;;;7.68;5.88;;;;;;;24.28;40.55;101110.31;5015388;28;20029;-71
2021/08/04 00:33:14;;;;;;;7.05;5.25;;;;;;;24.31;40.33;101106.72;5015356;28;20029;-78
2021/08/04 00:35:40;;;;;;;6.32;5.50;;;;;;;24.27;40.68;101111.53;5012566;28;20042;-71
2021/08/04 00:38:13;;;;;;;8.90;5.35;;;;;;;24.43;40.33;101115.94;5015190;28;20491;-71
2021/08/04 00:40:40;;;;;;;9.75;6.50;;;;;;;24.45;40.34;101119.13;5015242;28;20041;-71
2021/08/04 00:43:07;;;;;;;7.38;4.75;;;;;;;24.26;40.62;101109.13;5015162;28;20030;-71
2021/08/04 00:45:34;;;;;;;9.60;6.13;;;;;;;24.16;41.08;101119.06;5015152;28;20018;-77
2021/08/04 00:48:01;;;;;;;6.78;5.93;;;;;;;24.16;40.63;101116.28;5014967;28;20391;-71
2021/08/04 00:50:27;;;;;;;7.13;5.57;;;;;;;24.06;41.13;101117.06;5014965;28;20026;-71
2021/08/04 00:52:53;;;;;;;11.05;6.93;;;;;;;24.05;41.10;101112.69;5014963;28;20053;-71
2021/08/04 00:55:19;;;;;;;9.32;6.10;;;;;;;24.04;41.10;101113.88;5014958;28;20104;-70
2021/08/04 00:57:45;;;;;;;7.97;6.30;;;;;;;23.80;41.73;101109.81;5014775;28;20017;-71
2021/08/04 01:00:11;;;;;;;7.13;5.80;;;;;;;23.98;41.21;101109.88;5014914;28;20026;-71
2021/08/04 01:02:43;;;;;;;7.68;5.32;;;;;;;23.97;41.41;101111.06;5014739;28;20484;-78
2021/08/04 01:05:16;;;;;;;8.38;5.70;;;;;;;24.01;41.04;101112.66;5014792;28;20102;-71
2021/08/04 01:07:46;;;;;;;9.52;4.93;;;;;;;23.96;41.02;101109.47;5014608;28;20109;-71
2021/08/04 01:10:25;;;;;;;8.25;6.05;;;;;;;23.92;40.93;101106.66;5013400;28;20053;-71
2021/08/04 01:13:21;;;;;;;7.95;5.80;;;;;;;23.95;40.93;101105.06;5014698;28;20610;-71
2021/08/04 01:15:53;;;;;;;9.85;5.78;;;;;;;23.87;41.21;101100.66;5013307;28;20508;-70
2021/08/04 01:18:26;;;;;;;9.25;6.35;;;;;;;23.85;41.04;101100.28;5014273;28;20062;-71
2021/08/04 01:20:53;;;;;;;9.60;6.18;;;;;;;23.89;40.98;101101.09;5014489;28;20417;-71
2021/08/04 01:23:31;;;;;;;7.20;5.15;;;;;;;23.90;40.98;101106.28;5013142;28;20033;-71
2021/08/04 01:26:22;;;;;;;7.75;5.95;;;;;;;23.96;40.66;101106.69;5014422;28;20626;-71
2021/08/04 01:28:51;;;;;;;8.57;5.45;;;;;;;23.99;40.41;101105.88;5013899;28;20046;-71
2021/08/04 01:31:21;;;;;;;8.35;5.80;;;;;;;24.02;40.78;101103.09;5014270;28;20049;-73
2021/08/04 01:33:50;;;;;;;6.60;5.28;;;;;;;23.97;40.67;101106.28;5014478;28;20105;-72
2021/08/04 01:36:18;;;;;;;7.38;5.88;;;;;;;24.00;40.61;101107.47;5013773;28;20050;-71
2021/08/04 01:38:45;;;;;;;8.77;5.78;;;;;;;23.98;40.58;101098.72;5014139;28;20037;-71
2021/08/04 01:41:13;;;;;;;9.38;6.28;;;;;;;23.93;40.59;101096.31;5014093;28;20481;-71
2021/08/04 01:43:41;;;;;;;6.47;5.10;;;;;;;23.86;40.33;101096.28;5014025;28;20022;-71
2021/08/04 01:46:08;;;;;;;6.95;5.80;;;;;;;23.80;40.34;101090.28;5012762;28;20032;-71
2021/08/04 01:48:38;;;;;;;8.55;5.75;;;;;;;23.74;39.98;101087.09;5012299;28;20110;-71
2021/08/04 01:51:07;;;;;;;7.90;5.78;;;;;;;23.71;39.99;101099.03;5013917;28;20029;-71
2021/08/04 01:53:35;;;;;;;8.98;8.07;;;;;;;23.68;40.43;101096.25;5013790;28;20053;-71
2021/08/04 01:56:04;;;;;;;10.73;9.63;;;;;;;23.66;40.57;101093.84;5013826;28;20064;-71
2021/08/04 01:58:30;;;;;;;7.77;6.33;;;;;;;23.68;40.18;101101.81;5013775;28;20157;-71
2021/08/04 02:00:56;;;;;;;9.70;6.57;;;;;;;23.67;40.51;101103.81;5013681;28;20350;-71
2021/08/04 02:03:23;;;;;;;7.78;5.63;;;;;;;23.60;40.65;101108.53;5013750;28;20030;-71
2021/08/04 02:05:51;;;;;;;9.63;5.78;;;;;;;23.63;40.22;101100.22;5013650;28;20388;-71
2021/08/04 02:08:39;;;;;;;6.80;5.35;;;;;;;23.58;40.06;101099.75;5012276;28;20037;-71
2021/08/04 02:11:24;;;;;;;8.40;6.10;;;;;;;23.48;40.04;101104.91;5012319;28;20030;-71
2021/08/04 02:14:12;;;;;;;9.20;6.15;;;;;;;23.45;40.20;101099.31;5013817;28;20361;-71
2021/08/04 02:16:45;;;;;;;6.97;5.50;;;;;;;23.41;40.00;101092.91;5013584;28;20472;-71
2021/08/04 02:19:35;;;;;;;10.20;6.65;;;;;;;23.38;39.93;101102.88;5013459;28;20026;-71
2021/08/04 02:22:08;;;;;;;10.25;6.65;;;;;;;23.37;40.02;101111.63;5013709;28;20084;-71
2021/08/04 02:24:38;;;;;;;7.55;6.03;;;;;;;23.38;40.20;101105.66;5013412;28;20026;-77
2021/08/04 02:27:04;;;;;;;6.90;5.68;;;;;;;23.40;40.11;101102.47;5013368;28;20100;-71
2021/08/04 02:29:34;;;;;;;9.45;6.65;;;;;;;23.38;40.26;101099.28;5013087;28;20044;-71
2021/08/04 02:32:03;;;;;;;;;;;;;;;23.35;40.13;101103.66;5013709;28;20385;-71
2021/08/04 02:34:29;;;;;;;7.43;4.95;;;;;;;23.32;40.20;101112.00;5013042;28;19915;-71
2021/08/04 02:36:55;;;;;;;7.22;4.95;;;;;;;23.37;40.13;101111.63;5013353;28;20030;-78
2021/08/04 02:39:21;;;;;;;7.72;5.78;;;;;;;23.35;40.34;101100.06;5013108;28;20400;-73
2021/08/04 02:41:47;;;;;;;9.55;6.13;;;;;;;23.33;40.39;101097.66;5013045;28;20026;-70
2021/08/04 02:44:15;;;;;;;8.57;5.03;;;;;;;23.28;40.52;101100.06;5011734;28;20116;-71
2021/08/04 02:46:44;;;;;;;7.88;5.50;;;;;;;23.24;40.34;101094.44;5011747;28;20540;-71
2021/08/04 02:49:10;;;;;;;6.65;5.28;;;;;;;23.05;40.30;101089.97;5011567;28;20061;-71
2021/08/04 02:51:40;;;;;;;6.32;5.03;;;;;;;22.95;40.29;101087.91;5011672;28;20386;-71
2021/08/04 02:54:07;;;;;;;9.30;6.55;;;;;;;22.88;39.99;101094.22;5013157;28;20017;-71
2021/08/04 02:56:33;;;;;;;8.70;6.43;;;;;;;22.86;40.05;101096.63;5012919;28;20624;-71
2021/08/04 02:58:59;;;;;;;8.48;5.88;;;;;;;22.90;39.88;101103.03;5012422;28;20400;-71
2021/08/04 03:01:25;;;;;;;9.10;6.18;;;;;;;22.91;40.06;101098.25;5012851;28;20030;-71
2021/08/04 03:03:50;;;;;;;11.82;6.55;;;;;;;22.94;40.07;101105.81;5012821;28;20030;-71
2021/08/04 03:06:16;;;;;;;9.93;5.68;;;;;;;22.94;40.28;101098.25;5012133;28;20022;-71
2021/08/04 03:08:42;;;;;;;8.15;6.07;;;;;;;22.90;40.23;101091.88;5024141;28;20046;-77
2021/08/04 03:11:08;;;;;;;8.82;6.43;;;;;;;22.82;40.02;101087.44;5032446;28;20076;-71
2021/08/04 03:13:35;;;;;;;9.15;5.60;;;;;;;22.76;40.37;101091.75;5032410;28;20076;-71
2021/08/04 03:16:01;;;;;;;11.32;7.10;;;;;;;22.75;40.25;101090.16;5032386;28;20036;-70
2021/08/04 03:18:26;;;;;;;10.48;6.68;;;;;;;22.77;40.17;101093.34;5032581;28;20022;-71
2021/08/04 03:20:52;;;;;;;8.50;5.85;;;;;;;22.77;40.29;101085.00;5031058;28;20494;-71
2021/08/04 03:23:18;;;;;;;8.98;6.18;;;;;;;22.77;40.31;101090.56;5031124;28;20026;-70
2021/08/04 03:25:44;;;;;;;9.15;5.35;;;;;;;22.77;40.33;101092.56;5032290;28;20120;-71
2021/08/04 03:28:09;;;;;;;8.43;5.93;;;;;;;22.69;40.23;101091.69;5032144;28;20112;-71
2021/08/04 03:30:35;;;;;;;8.73;6.25;;;;;;;22.62;40.07;101097.22;5032265;28;20033;-71
2021/08/04 03:33:01;;;;;;;7.95;5.88;;;;;;;22.51;39.99;101091.56;5032140;28;20029;-77
2021/08/04 03:35:26;;;;;;;20.50;7.25;;;;;;;22.41;40.03;101097.84;5031891;28;20045;-70
2021/08/04 03:37:52;;;;;;;7.88;5.35;;;;;;;22.32;39.92;101098.16;5031966;28;20116;-71
2021/08/04 03:40:18;;;;;;;10.07;6.22;;;;;;;22.29;39.92;101106.47;5030643;28;20026;-71
2021/08/04 03:42:44;;;;;;;10.23;6.78;;;;;;;22.27;40.02;101104.06;5032109;28;20111;-71
2021/08/04 03:45:11;;;;;;;10.68;6.43;;;;;;;22.28;39.98;101096.53;5032042;28;20080;-71
2021/08/04 03:47:36;;;;;;;8.35;6.50;;;;;;;22.43;39.58;101098.25;5031953;28;20163;-74
2021/08/04 03:50:03;;;;;;;11.27;6.93;;;;;;;22.45;39.86;101103.47;5032328;28;20108;-71
2021/08/04 03:52:29;;;;;;;9.77;7.43;;;;;;;22.36;40.25;101106.53;5032006;28;20451;-72
2021/08/04 03:54:55;;;;;;;7.65;6.40;;;;;;;22.38;40.62;101109.75;5032047;28;20030;-71
2021/08/04 03:57:20;;;;;;;8.27;6.40;;;;;;;22.46;40.62;101105.06;5032063;28;20029;-71
2021/08/04 03:59:46;;;;;;;8.50;6.30;;;;;;;22.48;40.65;101092.34;5032014;28;20033;-71
2021/08/04 04:02:12;;;;;;;8.27;6.07;;;;;;;22.55;40.68;101111.09;5032243;28;20115;-70
2021/08/04 04:04:37;;;;;;;11.13;6.65;;;;;;;22.62;40.83;101109.16;5031974;28;20032;-71
2021/08/04 04:07:03;;;;;;;9.15;6.20;;;;;;;22.66;40.85;101109.97;5032505;28;20026;-71
2021/08/04 04:09:30;;;;;;;10.43;5.82;;;;;;;22.71;41.38;101112.41;5031855;28;20464;-71
2021/08/04 04:11:56;;;;;;;8.20;6.22;;;;;;;22.74;41.08;101113.59;5035534;28;20026;-71
2021/08/04 04:14:21;;;;;;;8.00;6.32;;;;;;;22.80;41.06;101111.25;5035502;28;20045;-77
2021/08/04 04:16:47;;;;;;;8.02;5.88;;;;;;;22.87;41.28;101108.56;5035514;28;20076;-71
2021/08/04 04:19:13;;;;;;;7.03;5.50;;;;;;;22.86;41.20;101106.97;5035525;28;20368;-71
2021/08/04 04:21:38;;;;;;;12.55;6.47;;;;;;;22.88;41.33;101110.94;5034071;28;20446;-71
2021/08/04 04:24:04;;;;;;;9.52;6.07;;;;;;;22.86;41.41;101112.53;5034096;28;20029;-71
2021/08/04 04:26:30;;;;;;;9.88;6.28;;;;;;;22.89;41.42;101111.75;5035308;28;20483;-72
2021/08/04 04:28:56;;;;;;;7.57;6.07;;;;;;;22.85;41.49;101114.53;5035226;28;20030;-70
2021/08/04 04:31:22;;;;;;;11.05;6.05;;;;;;;22.83;41.73;101110.50;5035176;28;20032;-71
2021/08/04 04:33:48;;;;;;;8.43;5.82;;;;;;;22.81;41.71;101113.66;5035081;28;20022;-71
2021/08/04 04:36:14;;;;;;;9.40;5.68;;;;;;;22.78;41.77;101110.84;5034906;28;20053;-71
2021/08/04 04:38:39;;;;;;;12.82;6.00;;;;;;;22.77;41.59;101117.63;5035126;28;20029;-73
2021/08/04 04:41:05;;;;;;;10.98;7.30;;;;;;;22.70;41.72;101119.16;5033735;28;20523;-71
2021/08/04 04:43:31;;;;;;;10.90;5.88;;;;;;;22.76;41.74;101110.47;5034942;28;20025;-71
2021/08/04 04:45:56;;;;;;;9.85;6.22;;;;;;;22.75;41.62;101114.41;5034570;28;20029;-70
2021/08/04 04:48:23;;;;;;;11.98;7.82;;;;;;;22.69;41.79;101120.34;5034995;28;20029;-69
2021/08/04 04:50:49;;;;;;;12.93;7.70;;;;;;;22.75;41.78;101122.75;5034881;28;20026;-69
2021/08/04 04:53:14;;;;;;;7.85;5.47;;;;;;;22.78;41.56;101117.22;5034802;28;20049;-74
2021/08/04 04:55:40;;;;;;;9.68;6.13;;;;;;;22.77;41.78;101121.22;5033127;28;20053;-70
2021/08/04 04:58:05;;;;;;;23.70;6.82;;;;;;;22.79;41.56;101118.81;5034713;28;20060;-70
2021/08/04 05:00:31;;;;;;;9.68;7.03;;;;;;;22.77;41.48;101115.63;5033407;28;20033;-70
2021/08/04 05:02:57;;;;;;;11.48;6.78;;;;;;;22.81;41.60;101116.44;5033367;28;20112;-73
2021/08/04 05:05:23;;;;;;;9.18;6.03;;;;;;;22.78;41.55;101111.66;5034774;28;20029;-70
2021/08/04 05:07:48;;;;;;;11.90;7.28;;;;;;;22.79;41.74;101112.47;5034353;28;20376;-70
2021/08/04 05:10:14;;;;;;;11.10;7.15;;;;;;;22.78;41.90;101111.66;5034481;28;20024;-70
2021/08/04 05:12:39;;;;;;;13.48;5.75;;;;;;;22.81;41.68;101113.66;5034398;28;20021;-70
2021/08/04 05:15:06;;;;;;;12.07;7.20;;;;;;;22.82;41.71;101106.94;5033993;28;20061;-71
2021/08/04 05:17:32;;;;;;;9.20;6.55;;;;;;;22.75;41.93;101106.88;5033819;28;20025;-70
2021/08/04 05:19:58;;;;;;;9.07;6.47;;;;;;;22.73;42.12;101105.63;5034275;28;20498;-71
2021/08/04 05:22:23;;;;;;;8.48;5.95;;;;;;;22.73;42.12;101100.06;5033563;28;20026;-71
2021/08/04 05:24:49;;;;;;;7.90;5.15;;;;;;;22.80;42.29;101103.69;5032887;28;20112;-71
2021/08/04 05:27:14;;;;;;;8.27;5.78;;;;;;;22.80;42.17;101103.69;5034202;28;20060;-70
2021/08/04 05:29:40;;;;;;;6.68;5.50;;;;;;;22.79;42.42;101095.75;5033978;28;20032;-71
2021/08/04 05:32:06;;;;;;;12.25;6.07;;;;;;;22.88;42.23;101101.78;5034089;28;20100;-70
2021/08/04 05:34:32;;;;;;;11.75;7.05;;;;;;;22.98;41.85;101098.28;5033156;28;20033;-71
2021/08/04 05:36:58;;;;;;;16.02;6.90;;;;;;;23.01;42.49;101099.50;5034114;28;20022;-71
2021/08/04 05:39:24;;;;;;;8.60;6.60;;;;;;;23.12;42.18;101094.75;5033840;28;20033;-71
2021/08/04 05:41:49;;;;;;;8.07;6.03;;;;;;;23.20;42.21;101088.88;5033836;28;20025;-71
2021/08/04 05:44:15;;;;;;;12.80;6.32;;;;;;;23.29;42.22;101084.91;5033419;28;20036;-70
2021/08/04 05:46:41;;;;;;;51.05;10.13;;;;;;;23.23;42.61;101078.91;5032961;28;20025;-70
2021/08/04 05:49:06;;;;;;;12.13;6.75;;;;;;;23.42;42.45;101086.16;5032425;28;20053;-69
2021/08/04 05:51:32;;;;;;;9.45;6.13;;;;;;;23.61;42.07;101080.28;5033166;28;20022;-70
2021/08/04 05:53:57;;;;;;;9.45;5.65;;;;;;;23.64;42.50;101079.47;5033585;28;20045;-70
2021/08/04 05:56:23;;;;;;;12.45;6.70;;;;;;;23.80;42.36;101079.94;5033574;28;20028;-72
2021/08/04 05:58:49;;;;;;;10.00;6.22;;;;;;;23.97;42.40;101080.38;5033629;28;20025;-70
2021/08/04 06:01:16;;;;;;;8.88;5.60;;;;;;;24.15;41.86;101081.19;5033554;28;20068;-77
2021/08/04 06:03:42;;;;;;;9.93;5.57;;;;;;;24.26;42.23;101081.22;5031385;28;20032;-71
2021/08/04 06:06:09;;;;;;;9.90;6.10;;;;;;;24.32;42.08;101086.00;5033388;28;20075;-70
2021/08/04 06:08:35;;;;;;;8.13;6.03;;;;;;;24.50;41.42;101083.22;5033355;28;20029;-70
2021/08/04 06:11:01;;;;;;;7.18;5.40;;;;;;;24.43;41.75;101083.22;5033410;28;20048;-70
2021/08/04 06:13:27;;;;;;;10.13;5.55;;;;;;;24.56;41.63;101089.19;5033326;28;20060;-70
2021/08/04 06:15:53;;;;;;;7.97;5.85;;;;;;;24.63;41.51;101094.78;5033328;28;20555;-77
2021/08/04 06:18:20;;;;;;;7.60;5.93;;;;;;;24.62;41.67;101088.38;5033145;28;20106;-69
2021/08/04 06:20:46;;;;;;;9.90;5.90;;;;;;;24.75;41.56;101088.78;5033156;28;20392;-70
2021/08/04 06:23:12;;;;;;;8.98;6.00;;;;;;;24.62;42.18;101091.19;5031832;28;20025;-76
2021/08/04 06:25:37;;;;;;;9.18;6.22;;;;;;;24.82;41.75;101091.56;5033068;28;20029;-69
2021/08/04 06:28:03;;;;;;;8.93;6.45;;;;;;;24.87;41.60;101088.38;5032965;28;20033;-70
2021/08/04 06:30:29;;;;;;;10.35;6.25;;;;;;;24.97;41.62;101091.53;5032658;28;20112;-71
2021/08/04 06:32:55;;;;;;;10.27;6.68;;;;;;;24.92;42.04;101090.72;5031136;28;20176;-70
2021/08/04 06:35:21;;;;;;;15.00;6.80;;;;;;;25.06;41.90;101095.53;5047534;28;20049;-71
2021/08/04 06:37:46;;;;;;;10.48;7.43;;;;;;;25.14;41.91;101093.50;5032879;28;20025;-71
2021/08/04 06:40:12;;;;;;;11.57;6.82;;;;;;;25.14;42.04;101090.72;5031314;28;20048;-70
2021/08/04 06:42:39;;;;;;;10.40;7.43;;;;;;;25.16;42.00;101093.91;5032864;28;20379;-76
2021/08/04 06:45:05;;;;;;;11.15;7.18;;;;;;;25.23;42.09;101087.47;5032746;28;20380;-78
2021/08/04 06:47:30;;;;;;;8.05;6.90;;;;;;;25.33;41.63;101076.28;5032766;28;20049;-70
2021/08/04 06:49:56;;;;;;;10.90;6.88;;;;;;;25.42;41.77;101085.03;5032734;28;20065;-70
2021/08/04 06:52:22;;;;;;;9.48;6.63;;;;;;;25.53;41.82;101084.16;5031029;28;20029;-79
2021/08/04 06:54:47;;;;;;;18.40;8.25;;;;;;;25.60;42.07;101078.53;5032686;28;20029;-70
2021/08/04 06:57:13;;;;;;;6.78;5.72;;;;;;;25.78;41.80;101076.47;5032746;28;20044;-70
2021/08/04 06:59:38;;;;;;;11.20;7.20;;;;;;;25.98;41.03;101082.34;5032584;28;20036;-70
2021/08/04 07:02:04;;;;;;;9.18;6.50;;;;;;;26.15;41.39;101081.44;5032619;28;20029;-76
2021/08/04 07:04:30;;;;;;;9.93;6.65;;;;;;;26.31;41.20;101082.91;5031300;28;20029;-71
2021/08/04 07:06:58;;;;;;;9.98;6.97;;;;;;;26.50;40.66;101091.56;5031261;28;20017;-70
2021/08/04 07:09:27;;;;;;;10.20;6.38;;;;;;;26.41;41.24;101082.03;5032530;28;20057;-70
2021/08/04 07:11:54;;;;;;;11.97;6.40;;;;;;;26.50;40.86;101080.34;5032546;28;20076;-71
2021/08/04 07:14:20;;;;;;;8.20;5.82;;;;;;;26.63;40.49;101077.84;5032296;28;20435;-71
2021/08/04 07:16:47;;;;;;;9.20;7.10;;;;;;;26.73;40.49;101076.13;5032408;28;20057;-67
2021/08/04 07:19:12;;;;;;;12.27;6.10;;;;;;;26.84;40.20;101085.25;5032315;28;20029;-67
2021/08/04 07:21:39;;;;;;;8.07;6.45;;;;;;;26.82;40.39;101087.66;5032409;28;20029;-66
2021/08/04 07:24:09;;;;;;;12.23;6.30;;;;;;;26.83;40.59;101086.47;5032371;28;20622;-66
2021/08/04 07:26:36;;;;;;;10.55;7.63;;;;;;;26.94;40.09;101092.75;5031004;28;20030;-67
2021/08/04 07:29:02;;;;;;;12.13;6.20;;;;;;;26.97;39.78;101083.47;5030918;28;20033;-67
2021/08/04 07:31:28;;;;;;;11.57;6.75;;;;;;;27.01;40.07;101075.84;5032234;28;20033;-66
2021/08/04 07:33:54;;;;;;;10.05;7.07;;;;;;;27.16;39.41;101075.72;5032187;28;20026;-73
2021/08/04 07:36:19;;;;;;;10.82;6.85;;;;;;;27.17;39.62;101075.28;5030806;28;20114;-68
2021/08/04 07:38:45;;;;;;;8.43;6.13;;;;;;;27.17;39.52;101071.69;5032216;28;20041;-66
2021/08/04 07:41:11;;;;;;;9.20;6.60;;;;;;;27.28;39.50;101067.56;5032220;28;20415;-75
2021/08/04 07:43:36;;;;;;;9.85;6.53;;;;;;;27.05;39.62;101071.03;5032475;28;20025;-76
2021/08/04 07:46:02;;;;;;;14.48;6.70;;;;;;;27.27;39.51;101063.13;5034615;28;20037;-68
2021/08/04 07:48:28;;;;;;;8.77;5.60;;;;;;;27.24;39.30;101075.19;5036058;28;20065;-68
2021/08/04 07:50:58;;;;;;;12.18;6.72;;;;;;;27.15;39.69;101071.31;5036024;28;20464;-67
2021/08/04 07:53:24;;;;;;;12.77;7.93;;;;;;;27.19;39.90;101063.63;5035906;28;20060;-67
2021/08/04 07:55:49;;;;;;;9.05;6.18;;;;;;;27.37;39.33;101069.84;5035974;28;20131;-76
2021/08/04 07:58:15;;;;;;;9.88;6.35;;;;;;;27.46;39.05;101067.31;5036044;28;20372;-75
2021/08/04 08:00:41;;;;;;;12.25;6.93;;;;;;;27.40;39.18;101073.81;5035793;28;20534;-77
2021/08/04 08:03:06;;;;;;;12.95;6.28;;;;;;;27.54;39.12;101073.63;5035722;28;20391;-70
2021/08/04 08:05:32;;;;;;;9.23;6.28;;;;;;;27.66;38.91;101070.25;5035697;28;20044;-78
2021/08/04 08:08:03;;;;;;;11.32;6.35;;;;;;;27.84;38.50;101075.63;5034311;28;20033;-67
2021/08/04 08:10:31;;;;;;;8.13;6.32;;;;;;;27.88;38.29;101076.38;5034830;28;20458;-77
2021/08/04 08:12:57;;;;;;;12.85;7.22;;;;;;;27.80;38.49;101075.66;5035521;28;20021;-67
2021/08/04 08:15:23;;;;;;;20.08;7.88;;;;;;;27.70;38.66;101071.00;5035471;28;20037;-67
2021/08/04 08:17:49;;;;;;;8.93;6.32;;;;;;;27.76;38.70;101082.56;5035450;28;20029;-72
2021/08/04 08:20:15;;;;;;;9.27;7.28;;;;;;;27.64;38.79;101081.88;5035525;28;20026;-76
2021/08/04 08:22:41;;;;;;;11.60;6.97;;;;;;;27.69;38.65;101082.69;5035534;28;20406;-68
2021/08/04 08:25:11;;;;;;;18.73;7.60;;;;;;;27.77;39.02;101076.53;5035297;28;20075;-75
2021/08/04 08:27:37;;;;;;;8.07;5.95;;;;;;;27.71;38.89;101072.59;5024945;28;20037;-66
2021/08/04 08:30:04;;;;;;;12.38;6.78;;;;;;;27.77;38.96;101070.91;5025808;28;20395;-72
2021/08/04 08:32:29;;;;;;;15.18;8.02;;;;;;;27.79;38.70;101084.53;5024496;28;20061;-75
2021/08/04 08:34:55;;;;;;;11.80;7.75;;;;;;;27.88;38.64;101079.16;5024548;28;20448;-67
2021/08/04 08:37:21;;;;;;;13.18;6.63;;;;;;;27.96;38.58;101082.66;5031371;28;20384;-67
2021/08/04 08:39:47;;;;;;;7.72;6.18;;;;;;;27.94;38.39;101085.91;5035020;28;20075;-73
2021/08/04 08:42:12;;;;;;;15.65;7.13;;;;;;;28.03;38.55;101077.75;5027936;28;20605;-67
2021/08/04 08:44:38;;;;;;;8.73;6.07;;;;;;;28.31;38.50;101076.53;5024802;28;20461;-67
2021/08/04 08:47:08;;;;;;;13.52;6.40;;;;;;;28.28;38.56;101076.56;5023769;28;20032;-68
2021/08/04 08:49:34;;;;;;;;;;;;;;;28.01;38.36;101076.59;5024456;28;20034;-75
2021/08/04 08:52:00;;;;;;;12.93;6.18;;;;;;;28.40;37.95;101067.53;5026383;28;19920;-77
2021/08/04 08:54:29;;;;;;;9.38;5.50;;;;;;;28.51;37.71;101073.00;5028949;28;20068;-66
2021/08/04 08:56:55;;;;;;;10.18;6.72;;;;;;;28.59;37.70;101068.84;5033957;28;20126;-67
2021/08/04 08:59:21;;;;;;;7.60;5.90;;;;;;;28.73;37.21;101060.94;5034826;28;20502;-66
2021/08/04 09:01:47;;;;;;;9.05;6.25;;;;;;;28.85;37.12;101067.13;5034666;28;20022;-67
2021/08/04 09:04:16;;;;;;;8.02;5.53;;;;;;;28.92;36.69;101069.84;5034363;28;20033;-74
2021/08/04 09:07:00;;;;;;;10.63;5.78;;;;;;;28.80;36.58;101064.84;5032805;28;20029;-71
2021/08/04 09:09:30;;;;;;;13.18;5.95;;;;;;;28.99;36.29;101061.25;5027448;28;20030;-71
2021/08/04 09:12:14;;;;;;;7.20;5.03;;;;;;;29.15;36.37;101052.91;5023059;28;20059;-67
2021/08/04 09:14:42;;;;;;;10.40;5.57;;;;;;;29.12;36.33;101055.78;5024274;28;20145;-68
2021/08/04 09:17:11;;;;;;;7.88;5.10;;;;;;;29.21;35.96;101047.56;5022996;28;20025;-72
2021/08/04 09:19:40;;;;;;;7.53;4.57;;;;;;;29.42;35.50;101040.69;5031388;28;20021;-75
2021/08/04 09:22:24;;;;;;;8.15;4.80;;;;;;;29.62;35.55;101049.91;5025257;28;20033;-76
2021/08/04 09:25:09;;;;;;;7.53;4.22;;;;;;;29.58;34.82;101042.78;5022932;28;20029;-67
2021/08/04 09:27:49;;;;;;;7.72;4.53;;;;;;;29.56;35.11;101040.41;5023357;28;20030;-72
2021/08/04 09:30:33;;;;;;;5.60;4.28;;;;;;;29.47;34.73;101040.16;5031653;28;20391;-74
2021/08/04 09:33:16;;;;;;;6.88;4.88;;;;;;;29.62;34.51;101043.47;5031063;28;20065;-71
2021/08/04 09:35:48;;;;;;;10.63;4.63;;;;;;;29.81;34.58;101034.19;5016112;28;20472;-75
2021/08/04 09:38:15;;;;;;;7.50;4.38;;;;;;;29.92;34.71;101040.34;5022804;28;20112;-67
2021/08/04 09:40:41;;;;;;;15.10;4.15;;;;;;;30.22;34.16;101042.06;5012925;28;20018;-71
2021/08/04 09:43:06;;;;;;;5.25;3.92;;;;;;;30.39;33.83;101040.03;5012877;28;20032;-74
2021/08/04 09:45:40;;;;;;;6.20;4.35;;;;;;;30.45;33.14;101037.44;5012898;28;20018;-68
2021/08/04 09:48:09;;;;;;;8.35;3.83;;;;;;;30.51;33.26;101035.69;5012759;28;20542;-75
2021/08/04 09:50:46;;;;;;;5.97;4.95;;;;;;;30.34;33.15;101037.75;5012883;28;20542;-68
2021/08/04 09:53:18;;;;;;;8.50;4.75;;;;;;;30.60;32.64;101030.19;5012655;28;20025;-74
2021/08/04 09:56:07;;;;;;;10.27;4.78;;;;;;;30.61;32.73;101018.50;5013254;28;20105;-76
2021/08/04 09:58:34;;;;;;;8.38;4.75;;;;;;;30.77;32.87;101025.34;5012074;28;20435;-69
2021/08/04 10:01:01;;;;;;;8.00;4.47;;;;;;;30.80;32.41;101028.06;5012031;28;20061;-68
2021/08/04 10:03:28;;;;;;;9.50;4.63;;;;;;;30.59;32.42;101028.59;5011925;28;20026;-68
2021/08/04 10:05:54;;;;;;;6.00;4.13;;;;;;;30.77;32.58;101028.16;5011930;28;20022;-72
2021/08/04 10:08:20;;;;;;;6.03;4.18;;;;;;;30.78;32.23;101022.06;5011656;28;20030;-69
2021/08/04 10:10:50;;;;;;;8.63;5.18;;;;;;;30.90;32.41;101026.94;5012059;28;20446;-69
2021/08/04 10:13:18;;;;;;;6.70;4.60;;;;;;;30.99;32.57;101026.31;5013084;28;20034;-69
2021/08/04 10:15:50;;;;;;;7.32;4.47;;;;;;;31.16;32.55;101024.22;5012994;28;20053;-70
2021/08/04 10:18:25;;;;;;;7.53;5.13;;;;;;;30.98;32.17;101023.94;5012932;28;20033;-67
2021/08/04 10:20:57;;;;;;;6.13;4.32;;;;;;;31.05;31.86;101018.88;5012778;28;20018;-75
2021/08/04 10:23:26;;;;;;;6.85;4.35;;;;;;;31.09;32.11;101015.97;5012826;28;20032;-67
2021/08/04 10:25:56;;;;;;;8.95;5.15;;;;;;;31.16;32.23;101013.72;5012828;28;20022;-67
2021/08/04 10:28:22;;;;;;;6.38;5.07;;;;;;;31.33;31.89;101014.44;5012591;28;20038;-71
2021/08/04 10:30:48;;;;;;;5.75;4.45;;;;;;;31.31;31.61;101011.28;5012708;28;20420;-75
2021/08/04 10:33:15;;;;;;;8.70;4.82;;;;;;;31.27;31.95;101013.41;5013217;28;20432;-68
2021/08/04 10:35:57;;;;;;;7.05;4.78;;;;;;;31.37;31.59;101005.88;5012416;28;20046;-68
2021/08/04 10:38:26;;;;;;;6.63;4.88;;;;;;;31.31;31.49;101014.13;5012858;28;20030;-67
2021/08/04 10:41:21;;;;;;;7.75;5.32;;;;;;;31.64;31.19;101011.88;5022588;28;20038;-67
2021/08/04 10:43:52;;;;;;;9.70;5.35;;;;;;;31.80;31.21;101005.31;5029118;28;20565;-72
2021/08/04 10:46:29;;;;;;;7.07;4.10;;;;;;;31.62;31.25;101000.22;5032226;28;20029;-70
2021/08/04 10:49:04;;;;;;;6.18;5.25;;;;;;;31.82;31.21;101000.03;5032094;28;20428;-69
2021/08/04 10:51:53;;;;;;;7.05;4.57;;;;;;;31.86;31.29;100997.09;5032085;28;20100;-76
2021/08/04 10:54:20;;;;;;;9.98;4.82;;;;;;;32.11;30.82;100990.59;5031934;28;20053;-75
2021/08/04 10:56:45;;;;;;;8.27;4.22;;;;;;;32.16;30.78;100987.97;5020589;28;20034;-74
2021/08/04 10:59:11;;;;;;;5.15;4.00;;;;;;;32.21;30.55;100989.44;5012353;28;20030;-75
2021/08/04 11:01:39;;;;;;;8.73;5.05;;;;;;;32.19;30.55;100992.69;5012382;28;20041;-69
2021/08/04 11:04:09;;;;;;;6.93;3.80;;;;;;;32.18;30.21;100981.84;5012295;28;20057;-79
2021/08/04 11:06:35;;;;;;;6.43;4.20;;;;;;;32.61;30.03;100983.22;5014843;28;20476;-73
2021/08/04 11:09:12;;;;;;;4.50;3.45;;;;;;;32.48;29.30;100981.22;5017104;28;20057;-77
2021/08/04 11:12:00;;;;;;;6.57;4.47;;;;;;;32.78;29.48;100982.53;5022185;28;20026;-69
2021/08/04 11:14:50;;;;;;;7.85;4.25;;;;;;;32.84;29.06;100974.25;5031206;28;20032;-69
2021/08/04 11:17:17;;;;;;;9.90;4.75;;;;;;;32.99;29.25;100978.16;5012092;28;20037;-68
2021/08/04 11:20:07;;;;;;;7.35;4.03;;;;;;;32.89;29.00;100976.53;5012581;28;20033;-77
2021/08/04 11:22:39;;;;;;;9.20;4.40;;;;;;;32.93;28.65;100974.34;5016293;28;20097;-69
2021/08/04 11:25:08;;;;;;;5.40;3.63;;;;;;;33.02;28.71;100974.41;5016210;28;20541;-68
2021/08/04 11:27:54;;;;;;;6.00;3.47;;;;;;;32.90;28.26;100972.44;5016156;28;20022;-71
2021/08/04 11:30:43;;;;;;;6.85;4.10;;;;;;;32.88;28.48;100965.69;5008743;28;20107;-68